createdAt,value
2023-05-19T00:00:00.235Z,25.00
2023-05-19T00:01:00.243Z,25.00
2023-05-19T00:02:00.297Z,0.00
2023-05-19T00:03:00.423Z,0.00
2023-05-19T00:04:00.242Z,0.00
2023-05-19T00:05:00.248Z,0.00
2023-05-19T00:06:00.289Z,0.00
2023-05-19T00:07:00.244Z,2.21
2023-05-19T00:08:00.242Z,14.05
2023-05-19T00:09:00.251Z,25.57
2023-05-19T00:10:00.239Z,25.00
2023-05-19T00:11:00.238Z,25.00
2023-05-19T00:12:00.270Z,25.00
2023-05-19T00:13:00.236Z,25.48
2023-05-19T00:14:00.255Z,25.72
2023-05-19T00:15:00.250Z,26.29
2023-05-19T00:16:00.363Z,25.00
2023-05-19T00:17:00.246Z,26.17
2023-05-19T00:18:00.312Z,25.42
2023-05-19T00:19:00.475Z,25.00
2023-05-19T00:20:00.253Z,25.00
2023-05-19T00:21:00.244Z,25.00
2023-05-19T00:22:00.247Z,25.10
2023-05-19T00:23:00.244Z,25.00
2023-05-19T00:24:00.297Z,25.43
2023-05-19T00:25:00.301Z,25.52
2023-05-19T00:26:00.260Z,25.00
2023-05-19T00:27:00.244Z,25.55
2023-05-19T00:28:00.850Z,25.86
2023-05-19T00:29:00.253Z,26.13
2023-05-19T00:30:00.246Z,26.56
2023-05-19T00:31:00.253Z,25.63
2023-05-19T00:32:00.529Z,26.36
2023-05-19T00:33:00.378Z,26.27
2023-05-19T00:34:00.260Z,25.70
2023-05-19T00:35:00.307Z,25.27
2023-05-19T00:36:00.288Z,26.26
2023-05-19T00:37:00.324Z,27.51
2023-05-19T00:38:00.319Z,25.00
2023-05-19T00:39:00.348Z,26.24
2023-05-19T00:40:00.375Z,26.69
2023-05-19T00:41:00.385Z,25.23
2023-05-19T00:42:00.397Z,25.44
2023-05-19T00:43:00.426Z,25.68
2023-05-19T00:44:00.519Z,28.42
2023-05-19T00:45:00.486Z,25.00
2023-05-19T00:46:00.496Z,27.23
2023-05-19T00:47:00.594Z,27.37
2023-05-19T00:48:00.559Z,27.27
2023-05-19T00:49:00.545Z,25.00
2023-05-19T00:50:00.611Z,27.65
2023-05-19T00:51:00.595Z,25.30
2023-05-19T00:52:00.609Z,26.62
2023-05-19T00:53:00.636Z,25.30
2023-05-19T00:54:00.652Z,25.00
2023-05-19T00:55:00.669Z,27.71
2023-05-19T00:56:00.697Z,25.00
2023-05-19T00:57:00.700Z,25.77
2023-05-19T00:58:00.738Z,27.63
2023-05-19T00:59:00.753Z,27.44
2023-05-19T01:00:00.809Z,26.17
2023-05-19T01:01:00.872Z,26.69
2023-05-19T01:02:00.818Z,28.28
2023-05-19T01:03:00.913Z,25.39
2023-05-19T01:04:00.933Z,25.88
2023-05-19T01:05:00.867Z,26.80
2023-05-19T01:06:01.228Z,26.13
2023-05-19T01:07:01.253Z,25.00
2023-05-19T01:08:01.276Z,28.17
2023-05-19T01:09:01.298Z,28.37
2023-05-19T01:10:01.291Z,27.26
2023-05-19T01:11:01.277Z,28.24
2023-05-19T01:12:01.296Z,28.61
2023-05-19T01:13:01.280Z,30.08
2023-05-19T01:14:01.289Z,27.17
2023-05-19T01:15:01.279Z,27.94
2023-05-19T01:16:01.396Z,25.77
2023-05-19T01:17:01.282Z,25.37
2023-05-19T01:18:02.270Z,25.80
2023-05-19T01:19:01.287Z,28.95
2023-05-19T01:20:01.304Z,27.36
2023-05-19T01:21:01.296Z,25.36
2023-05-19T01:22:01.322Z,28.27
2023-05-19T01:23:01.283Z,27.29
2023-05-19T01:24:01.283Z,28.76
2023-05-19T01:25:01.285Z,26.57
2023-05-19T01:26:01.290Z,25.71
2023-05-19T01:27:01.294Z,25.87
2023-05-19T01:28:01.299Z,30.05
2023-05-19T01:29:01.351Z,26.17
2023-05-19T01:30:01.282Z,27.32
2023-05-19T01:31:01.290Z,27.25
2023-05-19T01:32:01.338Z,29.03
2023-05-19T01:33:01.372Z,27.71
2023-05-19T01:34:01.296Z,26.45
2023-05-19T01:35:01.301Z,26.21
2023-05-19T01:36:01.326Z,27.53
2023-05-19T01:37:01.343Z,25.37
2023-05-19T01:38:01.367Z,26.65
2023-05-19T01:39:01.373Z,28.83
2023-05-19T01:40:01.388Z,27.52
2023-05-19T01:41:01.418Z,26.80
2023-05-19T01:42:01.414Z,27.25
2023-05-19T01:43:01.423Z,26.86
2023-05-19T01:44:01.434Z,26.86
2023-05-19T01:45:01.449Z,25.00
2023-05-19T01:46:01.461Z,26.63
2023-05-19T01:47:01.493Z,26.51
2023-05-19T01:48:01.538Z,26.50
2023-05-19T01:49:01.504Z,27.52
2023-05-19T01:50:01.563Z,26.14
2023-05-19T01:51:01.525Z,27.04
2023-05-19T01:52:01.529Z,26.18
2023-05-19T01:53:01.550Z,27.29
2023-05-19T01:54:01.572Z,25.80
2023-05-19T01:55:01.586Z,26.92
2023-05-19T01:56:01.670Z,26.03
2023-05-19T01:57:01.642Z,27.83
2023-05-19T01:58:01.654Z,27.53
2023-05-19T01:59:01.656Z,26.84
2023-05-19T02:00:01.681Z,26.94
2023-05-19T02:01:01.705Z,25.56
2023-05-19T02:02:01.708Z,26.19
2023-05-19T02:03:01.783Z,28.35
2023-05-19T02:04:01.798Z,26.64
2023-05-19T02:05:01.754Z,28.78
2023-05-19T02:06:01.761Z,27.32
2023-05-19T02:07:01.766Z,26.98
2023-05-19T02:08:01.778Z,27.26
2023-05-19T02:09:01.784Z,26.64
2023-05-19T02:10:01.811Z,26.73
2023-05-19T02:11:01.813Z,26.34
2023-05-19T02:12:01.832Z,27.55
2023-05-19T02:13:01.864Z,26.06
2023-05-19T02:14:01.849Z,26.57
2023-05-19T02:15:01.875Z,27.15
2023-05-19T02:16:01.964Z,26.78
2023-05-19T02:17:01.891Z,26.44
2023-05-19T02:18:01.918Z,25.60
2023-05-19T02:19:01.946Z,27.44
2023-05-19T02:20:01.933Z,27.48
2023-05-19T02:21:01.918Z,26.95
2023-05-19T02:22:01.925Z,28.42
2023-05-19T02:23:01.950Z,26.24
2023-05-19T02:24:01.952Z,29.30
2023-05-19T02:25:01.960Z,27.30
2023-05-19T02:26:01.972Z,27.76
2023-05-19T02:27:01.994Z,29.26
2023-05-19T02:28:02.021Z,26.52
2023-05-19T02:29:02.001Z,26.47
2023-05-19T02:30:02.033Z,28.63
2023-05-19T02:31:02.049Z,26.57
2023-05-19T02:32:02.103Z,29.48
2023-05-19T02:33:02.060Z,25.32
2023-05-19T02:34:02.058Z,26.38
2023-05-19T02:35:02.117Z,25.68
2023-05-19T02:36:02.105Z,26.72
2023-05-19T02:37:02.079Z,27.56
2023-05-19T02:38:02.084Z,27.01
2023-05-19T02:39:02.111Z,27.27
2023-05-19T02:40:02.101Z,26.27
2023-05-19T02:41:02.116Z,28.55
2023-05-19T02:42:02.119Z,26.92
2023-05-19T02:43:02.119Z,25.82
2023-05-19T02:44:02.176Z,27.10
2023-05-19T02:45:02.143Z,27.34
2023-05-19T02:46:02.172Z,28.26
2023-05-19T02:47:02.155Z,28.36
2023-05-19T02:48:02.225Z,29.79
2023-05-19T02:49:02.196Z,27.64
2023-05-19T02:50:02.184Z,25.55
2023-05-19T02:51:02.221Z,26.59
2023-05-19T02:52:02.293Z,25.60
2023-05-19T02:53:02.226Z,26.47
2023-05-19T02:54:02.244Z,26.35
2023-05-19T02:55:02.231Z,27.67
2023-05-19T02:56:02.249Z,25.00
2023-05-19T02:57:02.262Z,29.26
2023-05-19T02:58:02.278Z,28.97
2023-05-19T02:59:02.384Z,25.88
2023-05-19T03:00:02.293Z,26.66
2023-05-19T03:01:02.304Z,26.89
2023-05-19T03:02:02.410Z,25.57
2023-05-19T03:03:02.478Z,28.55
2023-05-19T03:04:02.520Z,27.19
2023-05-19T03:05:02.379Z,26.06
2023-05-19T03:06:02.369Z,28.33
2023-05-19T03:07:02.386Z,26.17
2023-05-19T03:08:02.455Z,26.66
2023-05-19T03:09:02.404Z,26.21
2023-05-19T03:10:02.423Z,26.58
2023-05-19T03:11:02.431Z,27.01
2023-05-19T03:12:02.448Z,26.74
2023-05-19T03:13:02.457Z,27.14
2023-05-19T03:14:02.475Z,29.33
2023-05-19T03:15:02.491Z,27.95
2023-05-19T03:16:02.513Z,26.56
2023-05-19T03:17:02.558Z,25.00
2023-05-19T03:18:02.545Z,26.66
2023-05-19T03:19:02.590Z,26.16
2023-05-19T03:20:02.561Z,27.78
2023-05-19T03:21:02.567Z,28.22
2023-05-19T03:22:02.574Z,27.78
2023-05-19T03:23:02.579Z,27.82
2023-05-19T03:24:02.624Z,25.24
2023-05-19T03:25:02.603Z,27.57
2023-05-19T03:26:02.624Z,26.52
2023-05-19T03:27:02.636Z,26.57
2023-05-19T03:28:02.637Z,25.90
2023-05-19T03:29:02.643Z,28.09
2023-05-19T03:30:03.849Z,26.48
2023-05-19T03:31:02.653Z,26.64
2023-05-19T03:32:02.684Z,26.68
2023-05-19T03:33:02.737Z,27.06
2023-05-19T03:34:02.659Z,25.66
2023-05-19T03:35:02.592Z,26.34
2023-05-19T03:36:02.588Z,27.57
2023-05-19T03:37:02.563Z,27.77
2023-05-19T03:38:02.557Z,27.10
2023-05-19T03:39:02.535Z,27.31
2023-05-19T03:40:02.560Z,26.44
2023-05-19T03:41:02.540Z,27.15
2023-05-19T03:42:02.489Z,27.57
2023-05-19T03:43:02.478Z,26.61
2023-05-19T03:44:02.487Z,26.20
2023-05-19T03:45:02.448Z,26.84
2023-05-19T03:46:02.569Z,26.16
2023-05-19T03:47:02.404Z,25.79
2023-05-19T03:48:02.442Z,26.86
2023-05-19T03:49:02.365Z,26.82
2023-05-19T03:50:02.359Z,26.58
2023-05-19T03:51:02.328Z,26.81
2023-05-19T03:52:02.313Z,27.94
2023-05-19T03:53:02.316Z,27.03
2023-05-19T03:54:02.294Z,28.45
2023-05-19T03:55:02.285Z,26.95
2023-05-19T03:56:02.348Z,27.11
2023-05-19T03:57:02.264Z,25.93
2023-05-19T03:58:02.243Z,26.94
2023-05-19T03:59:02.226Z,25.03
2023-05-19T04:00:02.231Z,27.12
2023-05-19T04:01:02.203Z,26.56
2023-05-19T04:02:02.246Z,28.89
2023-05-19T04:03:02.221Z,26.71
2023-05-19T04:04:02.193Z,27.61
2023-05-19T04:05:02.134Z,26.76
2023-05-19T04:06:02.138Z,28.46
2023-05-19T04:07:02.114Z,27.96
2023-05-19T04:08:02.103Z,27.02
2023-05-19T04:09:02.085Z,26.56
2023-05-19T04:10:02.067Z,27.12
2023-05-19T04:11:02.071Z,27.62
2023-05-19T04:12:02.102Z,26.63
2023-05-19T04:13:02.044Z,28.58
2023-05-19T04:14:02.038Z,25.38
2023-05-19T04:15:02.020Z,28.93
2023-05-19T04:16:02.103Z,27.47
2023-05-19T04:17:01.979Z,28.05
2023-05-19T04:18:02.049Z,27.17
2023-05-19T04:19:02.027Z,26.23
2023-05-19T04:20:01.939Z,28.81
2023-05-19T04:21:01.934Z,26.18
2023-05-19T04:22:01.918Z,27.63
2023-05-19T04:23:01.932Z,26.02
2023-05-19T04:24:01.953Z,27.66
2023-05-19T04:25:01.947Z,27.09
2023-05-19T04:26:02.030Z,25.89
2023-05-19T04:27:01.965Z,26.44
2023-05-19T04:28:02.003Z,27.01
2023-05-19T04:29:01.999Z,26.39
2023-05-19T04:30:02.001Z,26.71
2023-05-19T04:31:02.029Z,26.58
2023-05-19T04:32:02.021Z,25.92
2023-05-19T04:33:02.040Z,27.66
2023-05-19T04:34:02.049Z,25.98
2023-05-19T04:35:02.044Z,28.62
2023-05-19T04:36:02.053Z,27.57
2023-05-19T04:37:02.071Z,27.11
2023-05-19T04:38:02.070Z,28.07
2023-05-19T04:39:02.103Z,27.22
2023-05-19T04:40:02.138Z,26.14
2023-05-19T04:41:02.105Z,25.71
2023-05-19T04:42:02.102Z,26.98
2023-05-19T04:43:02.360Z,28.89
2023-05-19T04:44:02.182Z,28.19
2023-05-19T04:45:02.149Z,27.60
2023-05-19T04:46:02.153Z,26.69
2023-05-19T04:47:02.236Z,27.02
2023-05-19T04:48:02.246Z,29.59
2023-05-19T04:49:02.175Z,27.93
2023-05-19T04:50:02.198Z,28.54
2023-05-19T04:51:02.192Z,28.70
2023-05-19T04:52:02.192Z,26.63
2023-05-19T04:53:02.204Z,27.10
2023-05-19T04:54:02.211Z,25.70
2023-05-19T04:55:02.227Z,26.92
2023-05-19T04:56:02.240Z,26.50
2023-05-19T04:57:02.237Z,25.95
2023-05-19T04:58:02.236Z,27.55
2023-05-19T04:59:02.254Z,27.37
2023-05-19T05:00:02.282Z,26.59
2023-05-19T05:01:02.262Z,26.88
2023-05-19T05:02:02.300Z,27.62
2023-05-19T05:03:02.360Z,28.84
2023-05-19T05:04:02.499Z,28.06
2023-05-19T05:05:02.298Z,27.53
2023-05-19T05:06:02.336Z,27.84
2023-05-19T05:07:02.300Z,27.84
2023-05-19T05:08:02.310Z,28.43
2023-05-19T05:09:02.320Z,26.96
2023-05-19T05:10:02.332Z,27.64
2023-05-19T05:11:02.376Z,27.30
2023-05-19T05:12:02.361Z,26.11
2023-05-19T05:13:02.383Z,25.58
2023-05-19T05:14:02.381Z,29.22
2023-05-19T05:15:02.407Z,26.71
2023-05-19T05:16:02.463Z,28.10
2023-05-19T05:17:02.409Z,27.63
2023-05-19T05:18:02.456Z,25.22
2023-05-19T05:19:02.660Z,27.38
2023-05-19T05:20:02.457Z,26.99
2023-05-19T05:21:02.469Z,25.70
2023-05-19T05:22:02.468Z,28.01
2023-05-19T05:23:02.491Z,27.22
2023-05-19T05:24:02.487Z,28.22
2023-05-19T05:25:02.497Z,26.65
2023-05-19T05:26:02.503Z,27.12
2023-05-19T05:27:02.515Z,25.96
2023-05-19T05:28:02.518Z,27.02
2023-05-19T05:29:02.522Z,27.21
2023-05-19T05:30:02.527Z,27.71
2023-05-19T05:31:02.945Z,28.30
2023-05-19T05:32:02.633Z,27.84
2023-05-19T05:33:02.657Z,29.33
2023-05-19T05:34:02.570Z,29.20
2023-05-19T05:35:02.584Z,25.90
2023-05-19T05:36:02.592Z,26.73
2023-05-19T05:37:02.610Z,28.14
2023-05-19T05:38:02.622Z,25.54
2023-05-19T05:39:02.649Z,26.26
2023-05-19T05:40:02.659Z,28.11
2023-05-19T05:41:02.644Z,27.31
2023-05-19T05:42:02.665Z,26.18
2023-05-19T05:43:02.659Z,27.14
2023-05-19T05:44:02.676Z,26.03
2023-05-19T05:45:02.667Z,27.64
2023-05-19T05:46:02.740Z,26.47
2023-05-19T05:47:02.691Z,26.78
2023-05-19T05:48:02.813Z,27.26
2023-05-19T05:49:02.706Z,28.55
2023-05-19T05:50:02.693Z,27.31
2023-05-19T05:51:02.733Z,26.98
2023-05-19T05:52:06.351Z,27.02
2023-05-19T05:53:02.719Z,27.31
2023-05-19T05:54:02.667Z,27.64
2023-05-19T05:55:02.660Z,27.96
2023-05-19T05:56:02.653Z,27.69
2023-05-19T05:57:02.720Z,26.76
2023-05-19T05:58:02.630Z,27.87
2023-05-19T05:59:02.611Z,28.50
2023-05-19T06:00:02.603Z,26.67
2023-05-19T06:01:02.584Z,29.48
2023-05-19T06:02:02.622Z,27.95
2023-05-19T06:03:02.700Z,26.72
2023-05-19T06:04:02.586Z,29.18
2023-05-19T06:05:02.623Z,28.24
2023-05-19T06:06:02.525Z,27.88
2023-05-19T06:07:02.491Z,27.67
2023-05-19T06:08:02.516Z,27.69
2023-05-19T06:09:02.507Z,27.38
2023-05-19T06:10:02.529Z,28.48
2023-05-19T06:11:02.514Z,28.61
2023-05-19T06:12:02.511Z,27.75
2023-05-19T06:13:02.518Z,28.87
2023-05-19T06:14:02.561Z,26.95
2023-05-19T06:15:02.504Z,28.00
2023-05-19T06:16:02.674Z,26.59
2023-05-19T06:17:02.513Z,27.16
2023-05-19T06:18:02.529Z,27.76
2023-05-19T06:19:02.613Z,26.20
2023-05-19T06:20:02.563Z,27.46
2023-05-19T06:21:02.542Z,28.90
2023-05-19T06:22:02.547Z,28.94
2023-05-19T06:23:02.553Z,28.02
2023-05-19T06:24:02.567Z,28.32
2023-05-19T06:25:02.553Z,28.01
2023-05-19T06:26:02.562Z,27.46
2023-05-19T06:27:02.561Z,28.22
2023-05-19T06:28:02.557Z,27.69
2023-05-19T06:29:02.554Z,28.20
2023-05-19T06:30:02.552Z,29.30
2023-05-19T06:31:02.630Z,29.84
2023-05-19T06:32:02.553Z,29.09
2023-05-19T06:33:02.598Z,27.99
2023-05-19T06:34:02.542Z,30.15
2023-05-19T06:35:03.483Z,28.98
2023-05-19T06:36:02.558Z,29.32
2023-05-19T06:37:02.685Z,29.82
2023-05-19T06:38:02.496Z,30.35
2023-05-19T06:39:02.815Z,29.51
2023-05-19T06:40:02.490Z,29.10
2023-05-19T06:41:02.488Z,29.82
2023-05-19T06:42:02.482Z,28.52
2023-05-19T06:43:02.462Z,30.25
2023-05-19T06:44:02.463Z,30.14
2023-05-19T06:45:02.462Z,30.23
2023-05-19T06:46:02.475Z,29.43
2023-05-19T06:47:02.499Z,29.13
2023-05-19T06:48:02.451Z,29.01
2023-05-19T06:49:02.506Z,30.57
2023-05-19T06:50:02.453Z,30.18
2023-05-19T06:51:02.432Z,29.68
2023-05-19T06:52:02.532Z,29.21
2023-05-19T06:53:02.425Z,29.06
2023-05-19T06:54:02.415Z,29.44
2023-05-19T06:55:02.407Z,31.20
2023-05-19T06:56:02.396Z,29.48
2023-05-19T06:57:02.391Z,28.09
2023-05-19T06:58:02.410Z,28.97
2023-05-19T06:59:02.373Z,30.34
2023-05-19T07:00:02.399Z,28.84
2023-05-19T07:01:02.371Z,30.76
2023-05-19T07:02:02.409Z,28.33
2023-05-19T07:03:02.453Z,28.77
2023-05-19T07:04:02.427Z,30.18
2023-05-19T07:05:02.353Z,29.63
2023-05-19T07:06:02.336Z,29.57
2023-05-19T07:07:02.360Z,30.01
2023-05-19T07:08:02.366Z,29.77
2023-05-19T07:09:02.347Z,30.56
2023-05-19T07:10:02.341Z,30.61
2023-05-19T07:11:02.368Z,29.96
2023-05-19T07:12:02.355Z,28.97
2023-05-19T07:13:02.359Z,31.03
2023-05-19T07:14:02.331Z,30.55
2023-05-19T07:15:02.340Z,30.61
2023-05-19T07:16:02.357Z,30.70
2023-05-19T07:17:02.317Z,29.38
2023-05-19T07:18:02.348Z,30.76
2023-05-19T07:19:02.310Z,30.98
2023-05-19T07:20:02.293Z,32.09
2023-05-19T07:21:02.303Z,31.32
2023-05-19T07:22:02.292Z,29.68
2023-05-19T07:23:02.308Z,31.13
2023-05-19T07:24:02.346Z,30.84
2023-05-19T07:25:02.280Z,30.62
2023-05-19T07:26:02.266Z,32.34
2023-05-19T07:27:02.261Z,30.40
2023-05-19T07:28:02.266Z,30.91
2023-05-19T07:29:02.264Z,30.57
2023-05-19T07:30:02.253Z,31.51
2023-05-19T07:31:02.261Z,31.67
2023-05-19T07:32:02.308Z,30.51
2023-05-19T07:33:02.266Z,31.77
2023-05-19T07:34:02.250Z,31.00
2023-05-19T07:35:02.285Z,32.55
2023-05-19T07:36:02.254Z,32.52
2023-05-19T07:37:02.239Z,32.16
2023-05-19T07:38:02.265Z,31.26
2023-05-19T07:39:02.365Z,33.05
2023-05-19T07:40:02.473Z,32.99
2023-05-19T07:41:02.240Z,32.29
2023-05-19T07:42:02.270Z,31.85
2023-05-19T07:43:02.235Z,33.01
2023-05-19T07:44:02.252Z,33.65
2023-05-19T07:45:02.241Z,32.97
2023-05-19T07:46:02.319Z,33.53
2023-05-19T07:47:02.232Z,33.70
2023-05-19T07:48:02.241Z,33.47
2023-05-19T07:49:02.231Z,33.64
2023-05-19T07:50:02.220Z,33.25
2023-05-19T07:51:02.220Z,34.24
2023-05-19T07:52:02.202Z,33.97
2023-05-19T07:53:02.202Z,32.83
2023-05-19T07:54:02.222Z,33.75
2023-05-19T07:55:02.211Z,33.11
2023-05-19T07:56:02.265Z,33.69
2023-05-19T07:57:02.209Z,34.05
2023-05-19T07:58:02.208Z,34.13
2023-05-19T07:59:02.218Z,34.11
2023-05-19T08:00:02.236Z,33.98
2023-05-19T08:01:02.216Z,35.38
2023-05-19T08:02:02.269Z,35.52
2023-05-19T08:03:02.339Z,34.39
2023-05-19T08:04:02.389Z,34.05
2023-05-19T08:05:02.255Z,35.32
2023-05-19T08:06:02.249Z,33.23
2023-05-19T08:07:02.281Z,35.29
2023-05-19T08:08:02.265Z,34.81
2023-05-19T08:09:02.245Z,34.34
2023-05-19T08:10:02.276Z,35.13
2023-05-19T08:11:02.266Z,35.75
2023-05-19T08:12:02.356Z,34.29
2023-05-19T08:13:02.281Z,35.02
2023-05-19T08:14:02.288Z,35.85
2023-05-19T08:15:02.286Z,35.54
2023-05-19T08:16:02.407Z,34.80
2023-05-19T08:17:02.306Z,35.34
2023-05-19T08:18:02.403Z,35.73
2023-05-19T08:19:02.313Z,34.49
2023-05-19T08:20:02.269Z,34.51
2023-05-19T08:21:02.262Z,35.77
2023-05-19T08:22:02.253Z,34.71
2023-05-19T08:23:02.247Z,35.87
2023-05-19T08:24:02.263Z,36.08
2023-05-19T08:25:02.276Z,35.77
2023-05-19T08:26:02.262Z,36.04
2023-05-19T08:27:02.258Z,37.03
2023-05-19T08:28:02.396Z,36.11
2023-05-19T08:29:02.276Z,35.20
2023-05-19T08:30:02.274Z,37.26
2023-05-19T08:31:02.312Z,37.18
2023-05-19T08:32:02.261Z,38.57
2023-05-19T08:33:02.445Z,36.37
2023-05-19T08:34:02.233Z,37.79
2023-05-19T08:35:02.233Z,37.44
2023-05-19T08:36:02.246Z,37.41
2023-05-19T08:37:02.254Z,38.38
2023-05-19T08:38:02.261Z,38.37
2023-05-19T08:39:02.320Z,39.38
2023-05-19T08:40:02.300Z,38.40
2023-05-19T08:41:02.294Z,39.64
2023-05-19T08:42:02.299Z,37.57
2023-05-19T08:43:02.313Z,39.49
2023-05-19T08:44:02.615Z,38.95
2023-05-19T08:45:02.432Z,38.75
2023-05-19T08:46:02.379Z,37.01
2023-05-19T08:47:02.471Z,37.41
2023-05-19T08:48:02.527Z,38.17
2023-05-19T08:49:02.420Z,39.42
2023-05-19T08:50:02.498Z,39.61
2023-05-19T08:51:02.486Z,39.17
2023-05-19T08:52:02.513Z,40.12
2023-05-19T08:53:02.534Z,39.31
2023-05-19T08:54:02.542Z,39.76
2023-05-19T08:55:02.556Z,38.85
2023-05-19T08:56:02.555Z,39.81
2023-05-19T08:57:02.576Z,40.73
2023-05-19T08:58:02.561Z,39.55
2023-05-19T08:59:02.550Z,41.46
2023-05-19T09:00:02.640Z,40.31
2023-05-19T09:01:02.592Z,41.34
2023-05-19T09:02:02.559Z,40.24
2023-05-19T09:04:01.655Z,41.53
2023-05-19T09:05:02.597Z,41.81
2023-05-19T09:06:02.544Z,41.57
2023-05-19T09:07:02.501Z,42.14
2023-05-19T09:08:02.498Z,42.36
2023-05-19T09:09:02.488Z,41.76
2023-05-19T09:10:02.468Z,41.92
2023-05-19T09:11:02.438Z,42.45
2023-05-19T09:12:02.440Z,40.77
2023-05-19T09:13:02.412Z,42.42
2023-05-19T09:14:02.402Z,40.97
2023-05-19T09:15:02.384Z,41.82
2023-05-19T09:16:02.429Z,41.92
2023-05-19T09:17:02.451Z,42.37
2023-05-19T09:18:02.425Z,42.57
2023-05-19T09:19:02.405Z,42.49
2023-05-19T09:20:02.333Z,43.00
2023-05-19T09:21:02.342Z,42.34
2023-05-19T09:22:02.314Z,41.75
2023-05-19T09:23:02.297Z,42.42
2023-05-19T09:24:02.288Z,41.58
2023-05-19T09:25:02.287Z,41.55
2023-05-19T09:26:02.315Z,43.49
2023-05-19T09:27:02.369Z,43.15
2023-05-19T09:28:02.379Z,43.40
2023-05-19T09:29:02.425Z,43.39
2023-05-19T09:30:02.480Z,43.63
2023-05-19T09:31:02.517Z,42.23
2023-05-19T09:32:02.578Z,42.11
2023-05-19T09:33:02.640Z,43.74
2023-05-19T09:34:02.572Z,43.03
2023-05-19T09:35:02.575Z,43.13
2023-05-19T09:36:02.596Z,42.30
2023-05-19T09:37:02.600Z,42.58
2023-05-19T09:38:02.606Z,43.10
2023-05-19T09:39:02.635Z,43.83
2023-05-19T09:40:02.677Z,43.27
2023-05-19T09:41:02.689Z,43.17
2023-05-19T09:42:02.709Z,44.10
2023-05-19T09:43:02.770Z,44.69
2023-05-19T09:44:02.778Z,43.87
2023-05-19T09:45:02.770Z,43.85
2023-05-19T09:46:02.810Z,43.54
2023-05-19T09:47:02.825Z,42.90
2023-05-19T09:48:02.905Z,44.62
2023-05-19T09:49:02.849Z,44.85
2023-05-19T09:50:02.845Z,44.04
2023-05-19T09:51:02.900Z,44.62
2023-05-19T09:52:02.901Z,43.76
2023-05-19T09:53:02.896Z,44.45
2023-05-19T09:54:02.909Z,44.11
2023-05-19T09:55:03.548Z,44.53
2023-05-19T09:56:02.945Z,44.50
2023-05-19T09:57:02.984Z,42.80
2023-05-19T09:58:02.993Z,44.29
2023-05-19T09:59:03.046Z,43.78
2023-05-19T10:00:03.083Z,43.85
2023-05-19T10:01:03.132Z,45.19
2023-05-19T10:02:03.348Z,43.79
2023-05-19T10:03:03.168Z,44.93
2023-05-19T10:04:05.243Z,45.48
2023-05-19T10:05:03.195Z,48.57
2023-05-19T10:06:03.159Z,46.72
2023-05-19T10:07:03.116Z,48.05
2023-05-19T10:08:03.092Z,46.33
2023-05-19T10:09:03.067Z,46.72
2023-05-19T10:10:03.052Z,45.80
2023-05-19T10:11:03.036Z,46.19
2023-05-19T10:12:03.014Z,45.16
2023-05-19T10:13:02.999Z,45.29
2023-05-19T10:14:02.974Z,44.99
2023-05-19T10:15:02.953Z,46.79
2023-05-19T10:16:03.285Z,45.85
2023-05-19T10:17:03.075Z,46.04
2023-05-19T10:18:02.905Z,45.70
2023-05-19T10:19:02.920Z,47.31
2023-05-19T10:20:02.911Z,45.60
2023-05-19T10:21:02.835Z,45.95
2023-05-19T10:22:02.810Z,46.60
2023-05-19T10:23:02.791Z,46.23
2023-05-19T10:24:02.765Z,46.06
2023-05-19T10:25:02.745Z,46.65
2023-05-19T10:26:02.739Z,47.24
2023-05-19T10:27:02.706Z,46.94
2023-05-19T10:28:02.697Z,45.98
2023-05-19T10:29:02.665Z,46.18
2023-05-19T10:30:02.642Z,45.71
2023-05-19T10:31:02.630Z,48.07
2023-05-19T10:32:02.708Z,48.09
2023-05-19T10:33:02.622Z,46.17
2023-05-19T10:34:02.575Z,47.69
2023-05-19T10:35:02.557Z,47.52
2023-05-19T10:36:02.620Z,47.11
2023-05-19T10:37:02.518Z,46.40
2023-05-19T10:38:02.497Z,48.00
2023-05-19T10:39:02.474Z,47.42
2023-05-19T10:40:02.452Z,48.64
2023-05-19T10:41:02.424Z,46.90
2023-05-19T10:42:02.432Z,46.46
2023-05-19T10:43:02.392Z,47.61
2023-05-19T10:44:02.367Z,47.99
2023-05-19T10:45:02.469Z,47.63
2023-05-19T10:46:02.417Z,47.87
2023-05-19T10:47:02.724Z,48.53
2023-05-19T10:48:02.499Z,47.89
2023-05-19T10:49:02.495Z,49.19
2023-05-19T10:50:02.495Z,47.82
2023-05-19T10:51:02.505Z,47.95
2023-05-19T10:52:03.114Z,46.82
2023-05-19T10:53:02.590Z,48.41
2023-05-19T10:54:02.612Z,48.84
2023-05-19T10:55:02.639Z,48.10
2023-05-19T10:56:02.665Z,49.20
2023-05-19T10:57:02.661Z,48.81
2023-05-19T10:58:02.649Z,48.23
2023-05-19T10:59:02.654Z,47.38
2023-05-19T11:00:02.677Z,48.00
2023-05-19T11:01:02.648Z,47.52
2023-05-19T11:02:02.654Z,48.96
2023-05-19T11:03:02.662Z,48.04
2023-05-19T11:04:02.665Z,48.44
2023-05-19T11:05:02.585Z,48.24
2023-05-19T11:06:02.568Z,49.73
2023-05-19T11:07:02.582Z,50.12
2023-05-19T11:08:02.738Z,49.30
2023-05-19T11:09:02.593Z,50.19
2023-05-19T11:10:02.594Z,48.60
2023-05-19T11:11:02.601Z,49.99
2023-05-19T11:12:02.616Z,48.11
2023-05-19T11:13:02.566Z,48.64
2023-05-19T11:14:02.570Z,49.42
2023-05-19T11:15:02.615Z,49.89
2023-05-19T11:16:02.584Z,49.07
2023-05-19T11:17:02.842Z,48.72
2023-05-19T11:18:02.671Z,50.63
2023-05-19T11:19:02.624Z,50.20
2023-05-19T11:20:02.631Z,49.71
2023-05-19T11:21:02.760Z,49.00
2023-05-19T11:22:02.629Z,51.07
2023-05-19T11:23:02.680Z,50.32
2023-05-19T11:24:02.707Z,51.11
2023-05-19T11:25:02.640Z,52.29
2023-05-19T11:26:02.635Z,51.59
2023-05-19T11:27:02.647Z,51.63
2023-05-19T11:28:02.641Z,51.05
2023-05-19T11:29:02.645Z,51.06
2023-05-19T11:30:02.630Z,50.23
2023-05-19T11:31:02.655Z,52.40
2023-05-19T11:32:02.727Z,50.26
2023-05-19T11:33:02.713Z,52.12
2023-05-19T11:34:02.739Z,50.60
2023-05-19T11:35:02.813Z,51.05
2023-05-19T11:36:02.771Z,50.39
2023-05-19T11:37:02.851Z,52.16
2023-05-19T11:38:02.820Z,50.95
2023-05-19T11:39:02.851Z,51.59
2023-05-19T11:40:02.938Z,51.36
2023-05-19T11:41:02.946Z,52.05
2023-05-19T11:42:02.936Z,51.59
2023-05-19T11:43:02.940Z,51.11
2023-05-19T11:44:02.980Z,51.34
2023-05-19T11:45:02.991Z,51.67
2023-05-19T11:46:03.048Z,52.18
2023-05-19T11:47:03.062Z,51.45
2023-05-19T11:48:03.565Z,51.22
2023-05-19T11:49:03.107Z,52.91
2023-05-19T11:50:03.143Z,51.43
2023-05-19T11:51:03.218Z,52.13
2023-05-19T11:52:03.263Z,52.70
2023-05-19T11:53:03.201Z,52.68
2023-05-19T11:54:03.231Z,52.48
2023-05-19T11:55:03.242Z,51.65
2023-05-19T11:56:03.281Z,52.87
2023-05-19T11:57:03.261Z,53.22
2023-05-19T11:58:04.998Z,53.54
2023-05-19T11:59:03.248Z,54.49
2023-05-19T12:00:03.228Z,54.54
2023-05-19T12:01:03.204Z,53.77
2023-05-19T12:02:03.196Z,53.22
2023-05-19T12:03:03.278Z,51.93
2023-05-19T12:04:03.207Z,53.64
2023-05-19T12:05:03.157Z,53.62
2023-05-19T12:06:03.101Z,53.54
2023-05-19T12:07:03.056Z,54.35
2023-05-19T12:08:03.045Z,49.28
2023-05-19T12:09:03.004Z,52.61
2023-05-19T12:10:02.992Z,52.29
2023-05-19T12:11:02.959Z,53.20
2023-05-19T12:12:02.992Z,53.27
2023-05-19T12:13:02.908Z,53.58
2023-05-19T12:14:02.883Z,53.76
2023-05-19T12:15:02.891Z,52.78
2023-05-19T12:16:02.878Z,53.22
2023-05-19T12:17:02.875Z,51.57
2023-05-19T12:18:02.808Z,53.03
2023-05-19T12:19:02.803Z,52.88
2023-05-19T12:20:02.735Z,52.99
2023-05-19T12:21:02.711Z,54.81
2023-05-19T12:22:04.090Z,52.44
2023-05-19T12:23:02.708Z,53.74
2023-05-19T12:24:02.733Z,55.14
2023-05-19T12:25:02.734Z,52.04
2023-05-19T12:26:02.724Z,52.78
2023-05-19T12:27:02.704Z,53.58
2023-05-19T12:28:02.732Z,52.49
2023-05-19T12:29:02.696Z,52.48
2023-05-19T12:30:02.701Z,52.11
2023-05-19T12:31:02.736Z,53.66
2023-05-19T12:32:02.770Z,52.92
2023-05-19T12:33:03.016Z,53.03
2023-05-19T12:34:02.804Z,53.34
2023-05-19T12:35:02.880Z,51.95
2023-05-19T12:36:02.855Z,52.41
2023-05-19T12:37:02.881Z,53.25
2023-05-19T12:38:02.922Z,52.89
2023-05-19T12:39:02.954Z,52.13
2023-05-19T12:40:03.004Z,53.39
2023-05-19T12:41:03.026Z,54.16
2023-05-19T12:42:03.093Z,53.55
2023-05-19T12:43:03.123Z,52.91
2023-05-19T12:44:03.179Z,53.15
2023-05-19T12:45:03.506Z,53.25
2023-05-19T12:46:03.253Z,53.28
2023-05-19T12:47:03.308Z,53.67
2023-05-19T12:48:03.349Z,52.87
2023-05-19T12:49:03.298Z,54.66
2023-05-19T12:50:03.342Z,53.61
2023-05-19T12:51:03.378Z,53.24
2023-05-19T12:52:06.151Z,53.94
2023-05-19T12:53:03.427Z,54.25